TimeCST,TemperatureF,Dew PointF,Humidity,Sea Level PressureIn,VisibilityMPH,Wind Direction,Wind SpeedMPH,Gust SpeedMPH,PrecipitationIn,Events,Conditions,WindDirDegrees,DateUTC
12:56 AM,16.0,10.9,81,30.09,6.0,West,3.5,-,N/A,,Haze,280,2013-01-03 06:56:00
1:35 AM,15.8,10.4,79,30.03,5.0,WSW,4.6,-,N/A,,Haze,240,2013-01-03 07:35:00
1:56 AM,16.0,12.0,84,30.09,5.0,WSW,5.8,-,N/A,,Overcast,250,2013-01-03 07:56:00
2:56 AM,16.0,12.9,88,30.11,5.0,West,3.5,-,N/A,,Overcast,260,2013-01-03 08:56:00
3:56 AM,17.1,12.9,84,30.11,4.0,WSW,4.6,-,N/A,,Overcast,250,2013-01-03 09:56:00
4:56 AM,18.0,14.0,84,30.13,4.0,WSW,4.6,-,N/A,,Overcast,250,2013-01-03 10:56:00
5:56 AM,18.0,15.1,88,30.14,3.0,West,3.5,-,0.00,Snow,Light Snow,260,2013-01-03 11:56:00
6:56 AM,19.9,16.0,85,30.16,4.0,West,9.2,-,0.00,Snow,Light Snow,280,2013-01-03 12:56:00
7:56 AM,19.9,17.1,89,30.17,6.0,West,8.1,-,0.00,,Overcast,280,2013-01-03 13:56:00
8:56 AM,19.9,16.0,85,30.19,6.0,West,10.4,-,N/A,,Overcast,260,2013-01-03 14:56:00
9:56 AM,19.9,15.1,81,30.22,6.0,West,6.9,-,N/A,,Haze,270,2013-01-03 15:56:00
10:56 AM,19.0,14.0,81,30.23,6.0,NW,11.5,-,N/A,,Haze,310,2013-01-03 16:56:00
11:56 AM,18.0,12.9,81,30.22,5.0,NW,11.5,-,0.00,Snow,Light Snow,310,2013-01-03 17:56:00
12:56 PM,18.0,12.0,78,30.21,8.0,West,8.1,-,0.00,,Overcast,270,2013-01-03 18:56:00
1:56 PM,18.0,10.9,74,30.21,10.0,WNW,9.2,-,N/A,,Overcast,290,2013-01-03 19:56:00
2:33 PM,17.6,10.4,73,30.16,9.0,West,9.2,-,N/A,,Overcast,260,2013-01-03 20:33:00
2:56 PM,17.1,10.0,74,30.22,9.0,West,11.5,-,N/A,,Overcast,260,2013-01-03 20:56:00
3:56 PM,16.0,9.0,74,30.23,10.0,West,10.4,-,N/A,,Scattered Clouds,260,2013-01-03 21:56:00
4:56 PM,14.0,7.0,74,30.23,9.0,WSW,9.2,-,N/A,,Clear,250,2013-01-03 22:56:00
5:56 PM,12.0,5.0,73,30.23,10.0,WSW,8.1,-,N/A,,Clear,240,2013-01-03 23:56:00
6:56 PM,10.0,3.0,73,30.23,10.0,WSW,10.4,-,N/A,,Clear,240,2013-01-04 00:56:00
7:56 PM,9.0,1.9,73,30.21,10.0,SW,10.4,-,N/A,,Clear,230,2013-01-04 01:56:00
8:56 PM,9.0,1.9,73,30.19,10.0,SW,9.2,-,N/A,,Clear,230,2013-01-04 02:56:00
9:56 PM,9.0,3.9,80,30.18,10.0,SW,8.1,-,N/A,,Clear,230,2013-01-04 03:56:00
10:56 PM,8.1,3.9,83,30.16,10.0,SSW,9.2,-,N/A,,Clear,210,2013-01-04 04:56:00
11:56 PM,10.0,6.1,84,30.13,10.0,SW,8.1,-,N/A,,Clear,220,2013-01-04 05:56:00